sensor_id;sensor_type;location;lat;lon;timestamp;pressure;altitude;pressure_sealevel;temperature;humidity
77079;BME280;66004;55.096;38.760;2023-01-30T00:01:27;99488.81;;;-2.45;67.86
77079;BME280;66004;55.096;38.760;2023-01-30T00:03:53;99478.91;;;-2.41;68.08
77079;BME280;66004;55.096;38.760;2023-01-30T00:06:19;99484.94;;;-2.44;68.28
77079;BME280;66004;55.096;38.760;2023-01-30T00:08:45;99491.56;;;-2.45;68.08
77079;BME280;66004;55.096;38.760;2023-01-30T00:11:12;99487.66;;;-2.49;68.22
77079;BME280;66004;55.096;38.760;2023-01-30T00:13:40;99474.41;;;-2.57;68.16
77079;BME280;66004;55.096;38.760;2023-01-30T00:16:06;99463.91;;;-2.60;68.26
77079;BME280;66004;55.096;38.760;2023-01-30T00:18:35;99466.72;;;-2.55;68.48
77079;BME280;66004;55.096;38.760;2023-01-30T00:21:02;99476.13;;;-2.46;68.48
77079;BME280;66004;55.096;38.760;2023-01-30T00:23:29;99475.03;;;-2.45;68.45
77079;BME280;66004;55.096;38.760;2023-01-30T00:25:55;99462.91;;;-2.44;68.40
77079;BME280;66004;55.096;38.760;2023-01-30T00:28:21;99454.09;;;-2.46;68.45
77079;BME280;66004;55.096;38.760;2023-01-30T00:30:48;99452.97;;;-2.50;68.31
77079;BME280;66004;55.096;38.760;2023-01-30T00:33:18;99451.59;;;-2.47;68.58
77079;BME280;66004;55.096;38.760;2023-01-30T00:35:45;99454.63;;;-2.49;68.61
77079;BME280;66004;55.096;38.760;2023-01-30T00:38:11;99450.78;;;-2.48;68.48
77079;BME280;66004;55.096;38.760;2023-01-30T00:40:37;99450.78;;;-2.48;68.62
77079;BME280;66004;55.096;38.760;2023-01-30T00:43:03;99437.28;;;-2.49;68.55
77079;BME280;66004;55.096;38.760;2023-01-30T00:45:48;99430.94;;;-2.50;68.53
77079;BME280;66004;55.096;38.760;2023-01-30T00:48:33;99425.44;;;-2.50;68.63
77079;BME280;66004;55.096;38.760;2023-01-30T00:50:59;99430.94;;;-2.50;68.49
77079;BME280;66004;55.096;38.760;2023-01-30T00:53:24;99423.19;;;-2.53;68.61
77079;BME280;66004;55.096;38.760;2023-01-30T00:55:53;99421.00;;;-2.56;68.52
77079;BME280;66004;55.096;38.760;2023-01-30T00:58:21;99415.22;;;-2.60;68.70
77079;BME280;66004;55.096;38.760;2023-01-30T01:00:48;99413.25;;;-2.64;68.66
77079;BME280;66004;55.096;38.760;2023-01-30T01:03:14;99406.59;;;-2.74;68.90
77079;BME280;66004;55.096;38.760;2023-01-30T01:05:39;99406.00;;;-2.81;69.22
77079;BME280;66004;55.096;38.760;2023-01-30T01:08:05;99408.19;;;-2.83;69.12
77079;BME280;66004;55.096;38.760;2023-01-30T01:10:31;99403.81;;;-2.84;69.33
77079;BME280;66004;55.096;38.760;2023-01-30T01:12:57;99399.63;;;-2.86;69.48
77079;BME280;66004;55.096;38.760;2023-01-30T01:15:23;99394.41;;;-2.88;69.49
77079;BME280;66004;55.096;38.760;2023-01-30T01:17:50;99399.91;;;-2.93;69.41
77079;BME280;66004;55.096;38.760;2023-01-30T01:20:17;99388.34;;;-2.90;69.44
77079;BME280;66004;55.096;38.760;2023-01-30T01:22:43;99382.31;;;-2.87;69.62
77079;BME280;66004;55.096;38.760;2023-01-30T01:25:09;99387.28;;;-2.84;69.35
77079;BME280;66004;55.096;38.760;2023-01-30T01:27:36;99393.91;;;-2.80;69.18
77079;BME280;66004;55.096;38.760;2023-01-30T01:30:01;99384.00;;;-2.76;69.31
77079;BME280;66004;55.096;38.760;2023-01-30T01:32:27;99371.34;;;-2.77;69.11
77079;BME280;66004;55.096;38.760;2023-01-30T01:34:52;99372.44;;;-2.78;69.21
77079;BME280;66004;55.096;38.760;2023-01-30T01:37:18;99342.13;;;-2.88;69.05
77079;BME280;66004;55.096;38.760;2023-01-30T01:39:44;99346.53;;;-2.82;69.18
77079;BME280;66004;55.096;38.760;2023-01-30T01:42:29;99359.19;;;-2.81;69.34
77079;BME280;66004;55.096;38.760;2023-01-30T01:47:43;99363.06;;;-2.82;69.43
77079;BME280;66004;55.096;38.760;2023-01-30T01:50:20;99360.56;;;-2.83;69.45
77079;BME280;66004;55.096;38.760;2023-01-30T01:52:48;99357.56;;;-2.82;69.32
77079;BME280;66004;55.096;38.760;2023-01-30T01:55:16;99345.16;;;-2.79;69.33
77079;BME280;66004;55.096;38.760;2023-01-30T01:57:56;99349.63;;;-2.73;69.21
77079;BME280;66004;55.096;38.760;2023-01-30T02:00:23;99340.53;;;-2.68;69.26
77079;BME280;66004;55.096;38.760;2023-01-30T02:03:09;99338.06;;;-2.70;69.01
77079;BME280;66004;55.096;38.760;2023-01-30T02:05:42;99314.59;;;-2.88;68.99
77079;BME280;66004;55.096;38.760;2023-01-30T02:08:12;99338.03;;;-2.80;69.12
77079;BME280;66004;55.096;38.760;2023-01-30T02:13:24;99327.84;;;-2.80;69.00
77079;BME280;66004;55.096;38.760;2023-01-30T02:15:50;99316.81;;;-2.80;69.34
77079;BME280;66004;55.096;38.760;2023-01-30T02:18:16;99327.31;;;-2.71;68.96
77079;BME280;66004;55.096;38.760;2023-01-30T02:26:10;99306.91;;;-2.76;68.84
77079;BME280;66004;55.096;38.760;2023-01-30T02:43:27;99305.88;;;-2.59;68.72
77079;BME280;66004;55.096;38.760;2023-01-30T02:46:10;99298.69;;;-2.60;68.58
77079;BME280;66004;55.096;38.760;2023-01-30T02:49:22;99293.75;;;-2.63;68.78
77079;BME280;66004;55.096;38.760;2023-01-30T02:53:32;99298.97;;;-2.67;68.28
77079;BME280;66004;55.096;38.760;2023-01-30T02:55:59;99289.31;;;-2.69;68.50
77079;BME280;66004;55.096;38.760;2023-01-30T02:58:25;99289.88;;;-2.67;68.57
77079;BME280;66004;55.096;38.760;2023-01-30T03:07:32;99300.06;;;-2.68;68.81
77079;BME280;66004;55.096;38.760;2023-01-30T03:15:55;99266.75;;;-2.77;68.88
77079;BME280;66004;55.096;38.760;2023-01-30T03:18:24;99268.13;;;-2.69;68.95
77079;BME280;66004;55.096;38.760;2023-01-30T03:20:49;99275.56;;;-2.64;68.94
77079;BME280;66004;55.096;38.760;2023-01-30T03:23:16;99274.22;;;-2.62;68.75
77079;BME280;66004;55.096;38.760;2023-01-30T03:25:42;99264.00;;;-2.61;68.79
77079;BME280;66004;55.096;38.760;2023-01-30T03:28:12;99260.69;;;-2.58;68.82
77079;BME280;66004;55.096;38.760;2023-01-30T03:30:39;99265.13;;;-2.57;68.98
77079;BME280;66004;55.096;38.760;2023-01-30T03:33:04;99253.28;;;-2.58;68.75
77079;BME280;66004;55.096;38.760;2023-01-30T03:35:30;99255.19;;;-2.63;68.60
77079;BME280;66004;55.096;38.760;2023-01-30T03:37:57;99256.31;;;-2.59;68.81
77079;BME280;66004;55.096;38.760;2023-01-30T03:40:23;99231.78;;;-2.71;68.57
77079;BME280;66004;55.096;38.760;2023-01-30T03:42:48;99237.56;;;-2.67;68.60
77079;BME280;66004;55.096;38.760;2023-01-30T03:45:14;99261.81;;;-2.59;68.62
77079;BME280;66004;55.096;38.760;2023-01-30T03:47:40;99240.03;;;-2.66;68.63
77079;BME280;66004;55.096;38.760;2023-01-30T03:50:05;99240.31;;;-2.62;68.72
77079;BME280;66004;55.096;38.760;2023-01-30T03:52:33;99225.16;;;-2.70;68.49
77079;BME280;66004;55.096;38.760;2023-01-30T03:54:59;99238.13;;;-2.60;68.53
77079;BME280;66004;55.096;38.760;2023-01-30T03:57:24;99234.00;;;-2.63;68.66
77079;BME280;66004;55.096;38.760;2023-01-30T03:59:50;99241.72;;;-2.60;68.42
77079;BME280;66004;55.096;38.760;2023-01-30T04:02:15;99232.06;;;-2.67;68.50
77079;BME280;66004;55.096;38.760;2023-01-30T04:04:45;99234.53;;;-2.61;68.71
77079;BME280;66004;55.096;38.760;2023-01-30T04:07:10;99235.91;;;-2.58;68.66
77079;BME280;66004;55.096;38.760;2023-01-30T04:09:36;99229.84;;;-2.60;68.63
77079;BME280;66004;55.096;38.760;2023-01-30T04:12:01;99239.78;;;-2.59;68.54
77079;BME280;66004;55.096;38.760;2023-01-30T04:14:27;99238.66;;;-2.58;68.49
77079;BME280;66004;55.096;38.760;2023-01-30T04:16:52;99237.28;;;-2.61;68.61
77079;BME280;66004;55.096;38.760;2023-01-30T04:19:18;99219.97;;;-2.61;68.71
77079;BME280;66004;55.096;38.760;2023-01-30T04:21:43;99216.63;;;-2.58;68.86
77079;BME280;66004;55.096;38.760;2023-01-30T04:24:09;99211.44;;;-2.60;68.85
77079;BME280;66004;55.096;38.760;2023-01-30T04:26:37;99204.53;;;-2.57;68.69
77079;BME280;66004;55.096;38.760;2023-01-30T04:29:03;99198.50;;;-2.54;68.82
77079;BME280;66004;55.096;38.760;2023-01-30T04:31:28;99196.81;;;-2.55;68.63
77079;BME280;66004;55.096;38.760;2023-01-30T04:33:54;99188.56;;;-2.55;68.92
77079;BME280;66004;55.096;38.760;2023-01-30T04:36:20;99189.94;;;-2.52;68.69
77079;BME280;66004;55.096;38.760;2023-01-30T04:38:45;99186.38;;;-2.48;68.86
77079;BME280;66004;55.096;38.760;2023-01-30T04:41:11;99187.19;;;-2.47;68.74
77079;BME280;66004;55.096;38.760;2023-01-30T04:43:36;99181.41;;;-2.56;68.88
77079;BME280;66004;55.096;38.760;2023-01-30T04:46:02;99168.19;;;-2.64;68.89
77079;BME280;66004;55.096;38.760;2023-01-30T04:48:27;99180.28;;;-2.55;68.91
77079;BME280;66004;55.096;38.760;2023-01-30T04:50:54;99167.09;;;-2.63;69.11
77079;BME280;66004;55.096;38.760;2023-01-30T04:53:20;99174.25;;;-2.57;68.97
77079;BME280;66004;55.096;38.760;2023-01-30T04:55:46;99179.75;;;-2.62;69.21
77079;BME280;66004;55.096;38.760;2023-01-30T04:58:12;99170.91;;;-2.69;69.21
77079;BME280;66004;55.096;38.760;2023-01-30T05:00:38;99168.72;;;-2.72;69.25
77079;BME280;66004;55.096;38.760;2023-01-30T05:03:03;99161.00;;;-2.81;69.40
77079;BME280;66004;55.096;38.760;2023-01-30T05:05:30;99171.47;;;-2.72;69.36
77079;BME280;66004;55.096;38.760;2023-01-30T05:07:56;99158.25;;;-2.76;69.26
77079;BME280;66004;55.096;38.760;2023-01-30T05:10:22;99156.06;;;-2.74;69.39
77079;BME280;66004;55.096;38.760;2023-01-30T05:12:47;99143.41;;;-2.75;69.43
77079;BME280;66004;55.096;38.760;2023-01-30T05:15:13;99144.22;;;-2.69;69.36
77079;BME280;66004;55.096;38.760;2023-01-30T05:17:39;99146.13;;;-2.69;69.50
77079;BME280;66004;55.096;38.760;2023-01-30T05:20:06;99145.31;;;-2.70;69.35
77079;BME280;66004;55.096;38.760;2023-01-30T05:22:32;99139.00;;;-2.70;69.44
77079;BME280;66004;55.096;38.760;2023-01-30T05:24:58;99131.81;;;-2.71;69.20
77079;BME280;66004;55.096;38.760;2023-01-30T05:27:24;99130.19;;;-2.67;69.41
77079;BME280;66004;55.096;38.760;2023-01-30T05:29:49;99110.38;;;-2.75;69.36
77079;BME280;66004;55.096;38.760;2023-01-30T05:32:15;99123.03;;;-2.63;69.16
77079;BME280;66004;55.096;38.760;2023-01-30T05:34:42;99105.69;;;-2.69;69.42
77079;BME280;66004;55.096;38.760;2023-01-30T05:37:08;99116.94;;;-2.60;69.20
77079;BME280;66004;55.096;38.760;2023-01-30T05:39:33;99101.00;;;-2.63;69.19
77079;BME280;66004;55.096;38.760;2023-01-30T05:41:59;99110.09;;;-2.58;69.09
77079;BME280;66004;55.096;38.760;2023-01-30T05:44:24;99097.69;;;-2.55;69.06
77079;BME280;66004;55.096;38.760;2023-01-30T05:46:50;99108.16;;;-2.52;68.84
77079;BME280;66004;55.096;38.760;2023-01-30T05:49:15;99094.38;;;-2.52;68.91
77079;BME280;66004;55.096;38.760;2023-01-30T05:51:41;99088.88;;;-2.52;68.85
77079;BME280;66004;55.096;38.760;2023-01-30T05:54:07;99102.66;;;-2.52;68.89
77079;BME280;66004;55.096;38.760;2023-01-30T05:56:33;99095.75;;;-2.49;68.82
77079;BME280;66004;55.096;38.760;2023-01-30T05:59:00;99096.56;;;-2.49;68.90
77079;BME280;66004;55.096;38.760;2023-01-30T06:01:27;99090.50;;;-2.46;68.71
77079;BME280;66004;55.096;38.760;2023-01-30T06:03:53;99093.53;;;-2.42;68.68
77079;BME280;66004;55.096;38.760;2023-01-30T06:06:20;99092.69;;;-2.38;68.90
77079;BME280;66004;55.096;38.760;2023-01-30T06:08:47;99090.25;;;-2.39;68.57
77079;BME280;66004;55.096;38.760;2023-01-30T06:11:13;99094.91;;;-2.40;68.39
77079;BME280;66004;55.096;38.760;2023-01-30T06:13:39;99078.41;;;-2.50;68.27
77079;BME280;66004;55.096;38.760;2023-01-30T06:16:06;99083.34;;;-2.47;68.31
77079;BME280;66004;55.096;38.760;2023-01-30T06:18:32;99068.50;;;-2.56;68.45
77079;BME280;66004;55.096;38.760;2023-01-30T06:20:58;99088.03;;;-2.47;68.55
77079;BME280;66004;55.096;38.760;2023-01-30T06:23:24;99079.50;;;-2.46;68.32
77079;BME280;66004;55.096;38.760;2023-01-30T06:25:51;99073.72;;;-2.39;68.26
77079;BME280;66004;55.096;38.760;2023-01-30T06:28:17;99073.13;;;-2.36;68.38
77079;BME280;66004;55.096;38.760;2023-01-30T06:30:43;99076.44;;;-2.34;68.16
77079;BME280;66004;55.096;38.760;2023-01-30T06:33:09;99078.91;;;-2.27;67.98
77079;BME280;66004;55.096;38.760;2023-01-30T06:35:39;99069.53;;;-2.21;67.80
77079;BME280;66004;55.096;38.760;2023-01-30T06:38:05;99062.88;;;-2.15;68.09
77079;BME280;66004;55.096;38.760;2023-01-30T06:40:33;99060.13;;;-2.10;68.09
77079;BME280;66004;55.096;38.760;2023-01-30T06:42:59;99061.75;;;-2.04;67.72
77079;BME280;66004;55.096;38.760;2023-01-30T06:45:25;99063.41;;;-1.98;67.78
77079;BME280;66004;55.096;38.760;2023-01-30T06:47:52;99055.13;;;-1.98;67.60
77079;BME280;66004;55.096;38.760;2023-01-30T06:50:21;99038.06;;;-2.10;67.73
77079;BME280;66004;55.096;38.760;2023-01-30T06:52:48;99040.81;;;-2.05;67.99
77079;BME280;66004;55.096;38.760;2023-01-30T06:55:16;99047.94;;;-1.93;67.64
77079;BME280;66004;55.096;38.760;2023-01-30T06:57:43;99034.94;;;-1.88;67.60
77079;BME280;66004;55.096;38.760;2023-01-30T07:00:09;99045.66;;;-1.81;67.10
77079;BME280;66004;55.096;38.760;2023-01-30T07:02:36;99030.22;;;-1.77;67.04
77079;BME280;66004;55.096;38.760;2023-01-30T07:05:02;99038.44;;;-1.72;66.86
77079;BME280;66004;55.096;38.760;2023-01-30T07:07:28;99035.13;;;-1.64;66.71
77079;BME280;66004;55.096;38.760;2023-01-30T07:09:54;99032.31;;;-1.59;66.73
77079;BME280;66004;55.096;38.760;2023-01-30T07:12:20;99041.13;;;-1.57;66.65
77079;BME280;66004;55.096;38.760;2023-01-30T07:14:45;99032.84;;;-1.57;66.66
77079;BME280;66004;55.096;38.760;2023-01-30T07:17:11;99032.28;;;-1.53;66.62
77079;BME280;66004;55.096;38.760;2023-01-30T07:19:36;99036.44;;;-1.56;66.63
77079;BME280;66004;55.096;38.760;2023-01-30T07:22:03;99024.00;;;-1.53;66.64
77079;BME280;66004;55.096;38.760;2023-01-30T07:24:29;99017.09;;;-1.51;66.39
77079;BME280;66004;55.096;38.760;2023-01-30T07:26:55;99019.00;;;-1.46;66.53
77079;BME280;66004;55.096;38.760;2023-01-30T07:29:20;99023.91;;;-1.38;66.51
77079;BME280;66004;55.096;38.760;2023-01-30T07:31:46;99020.59;;;-1.35;66.33
77079;BME280;66004;55.096;38.760;2023-01-30T07:34:11;99016.22;;;-1.41;66.44
77079;BME280;66004;55.096;38.760;2023-01-30T07:36:37;99020.59;;;-1.35;66.37
77079;BME280;66004;55.096;38.760;2023-01-30T07:39:03;99021.13;;;-1.33;66.29
77079;BME280;66004;55.096;38.760;2023-01-30T07:41:35;99025.75;;;-1.28;66.24
77079;BME280;66004;55.096;38.760;2023-01-30T07:44:01;99015.81;;;-1.24;66.07
77079;BME280;66004;55.096;38.760;2023-01-30T07:46:26;99019.94;;;-1.22;66.05
77079;BME280;66004;55.096;38.760;2023-01-30T07:49:05;99018.78;;;-1.15;65.93
77079;BME280;66004;55.096;38.760;2023-01-30T07:51:31;99021.53;;;-1.15;65.92
77079;BME280;66004;55.096;38.760;2023-01-30T07:53:57;99019.59;;;-1.15;65.87
77079;BME280;66004;55.096;38.760;2023-01-30T07:56:25;99011.63;;;-1.16;66.24
77079;BME280;66004;55.096;38.760;2023-01-30T07:58:50;99001.41;;;-1.16;65.83
77079;BME280;66004;55.096;38.760;2023-01-30T08:01:16;99004.41;;;-1.12;65.65
77079;BME280;66004;55.096;38.760;2023-01-30T08:03:42;98993.78;;;-1.00;65.95
77079;BME280;66004;55.096;38.760;2023-01-30T08:06:10;98994.28;;;-0.93;65.46
77079;BME280;66004;55.096;38.760;2023-01-30T08:08:36;98995.03;;;-0.82;65.10
77079;BME280;66004;55.096;38.760;2023-01-30T08:11:02;98981.50;;;-0.84;65.18
77079;BME280;66004;55.096;38.760;2023-01-30T08:13:28;98993.00;;;-0.71;65.17
77079;BME280;66004;55.096;38.760;2023-01-30T08:15:54;98965.41;;;-0.76;65.01
77079;BME280;66004;55.096;38.760;2023-01-30T08:18:19;98984.84;;;-0.57;65.00
77079;BME280;66004;55.096;38.760;2023-01-30T08:20:45;98976.84;;;-0.59;64.68
77079;BME280;66004;55.096;38.760;2023-01-30T08:23:10;98973.50;;;-0.56;64.69
77079;BME280;66004;55.096;38.760;2023-01-30T08:25:36;98953.63;;;-0.58;64.71
77079;BME280;66004;55.096;38.760;2023-01-30T08:28:02;98949.69;;;-0.52;64.73
77079;BME280;66004;55.096;38.760;2023-01-30T08:30:29;98954.75;;;-0.35;64.53
77079;BME280;66004;55.096;38.760;2023-01-30T08:32:55;98943.91;;;-0.31;64.43
77079;BME280;66004;55.096;38.760;2023-01-30T08:35:21;98937.19;;;-0.25;64.09
77079;BME280;66004;55.096;38.760;2023-01-30T08:37:46;98923.44;;;-0.30;64.07
77079;BME280;66004;55.096;38.760;2023-01-30T08:40:13;98934.50;;;-0.30;63.96
77079;BME280;66004;55.096;38.760;2023-01-30T08:42:38;98932.88;;;-0.31;64.26
77079;BME280;66004;55.096;38.760;2023-01-30T08:45:05;98926.19;;;-0.30;63.88
77079;BME280;66004;55.096;38.760;2023-01-30T08:47:30;98924.00;;;-0.28;64.08
77079;BME280;66004;55.096;38.760;2023-01-30T08:53:26;98916.81;;;-0.29;63.48
77079;BME280;66004;55.096;38.760;2023-01-30T08:55:52;98921.56;;;-0.35;63.63
77079;BME280;66004;55.096;38.760;2023-01-30T08:58:21;98920.63;;;-0.25;63.88
77079;BME280;66004;55.096;38.760;2023-01-30T09:00:47;98914.50;;;-0.22;64.03
77079;BME280;66004;55.096;38.760;2023-01-30T09:03:13;98917.78;;;-0.20;63.81
77079;BME280;66004;55.096;38.760;2023-01-30T09:05:39;98910.84;;;-0.17;63.86
77079;BME280;66004;55.096;38.760;2023-01-30T09:08:05;98900.00;;;-0.14;63.84
77079;BME280;66004;55.096;38.760;2023-01-30T09:10:30;98897.94;;;-0.03;63.83
77079;BME280;66004;55.096;38.760;2023-01-30T09:12:56;98884.13;;;-0.03;63.65
77079;BME280;66004;55.096;38.760;2023-01-30T09:15:22;98902.44;;;0.12;63.40
77079;BME280;66004;55.096;38.760;2023-01-30T09:17:47;98914.53;;;0.16;63.15
77079;BME280;66004;55.096;38.760;2023-01-30T09:20:13;98897.13;;;0.15;63.25
77079;BME280;66004;55.096;38.760;2023-01-30T09:22:39;98887.09;;;0.19;63.21
77079;BME280;66004;55.096;38.760;2023-01-30T09:25:05;98894.03;;;0.17;63.08
77079;BME280;66004;55.096;38.760;2023-01-30T09:27:31;98876.25;;;0.23;63.39
77079;BME280;66004;55.096;38.760;2023-01-30T09:29:56;98877.81;;;0.29;62.97
77079;BME280;66004;55.096;38.760;2023-01-30T09:32:22;98866.81;;;0.24;63.07
77079;BME280;66004;55.096;38.760;2023-01-30T09:34:47;98865.47;;;0.41;62.88
77079;BME280;66004;55.096;38.760;2023-01-30T09:37:13;98859.16;;;0.54;62.72
77079;BME280;66004;55.096;38.760;2023-01-30T09:39:39;98848.66;;;0.51;62.50
77079;BME280;66004;55.096;38.760;2023-01-30T09:47:47;98845.16;;;0.64;62.49
77079;BME280;66004;55.096;38.760;2023-01-30T09:55:49;98826.28;;;0.66;62.24
77079;BME280;66004;55.096;38.760;2023-01-30T09:58:20;98824.03;;;0.68;62.27
77079;BME280;66004;55.096;38.760;2023-01-30T10:00:48;98838.59;;;0.74;62.18
77079;BME280;66004;55.096;38.760;2023-01-30T10:03:33;98827.22;;;0.75;62.09
77079;BME280;66004;55.096;38.760;2023-01-30T10:06:05;98815.09;;;0.71;62.19
77079;BME280;66004;55.096;38.760;2023-01-30T10:11:40;98809.09;;;0.83;62.13
77079;BME280;66004;55.096;38.760;2023-01-30T10:14:40;98787.41;;;0.71;62.19
77079;BME280;66004;55.096;38.760;2023-01-30T10:17:22;98789.06;;;0.72;62.13
77079;BME280;66004;55.096;38.760;2023-01-30T10:23:29;98795.13;;;0.74;62.17
77079;BME280;66004;55.096;38.760;2023-01-30T10:26:25;98801.97;;;0.77;62.21
77079;BME280;66004;55.096;38.760;2023-01-30T10:29:08;98782.09;;;0.61;62.40
77079;BME280;66004;55.096;38.760;2023-01-30T10:31:44;98797.25;;;0.64;62.40
77079;BME280;66004;55.096;38.760;2023-01-30T10:34:21;98793.75;;;0.58;62.52
77079;BME280;66004;55.096;38.760;2023-01-30T10:37:07;98798.84;;;0.51;62.70
77079;BME280;66004;55.096;38.760;2023-01-30T10:39:56;98790.66;;;0.46;62.88
77079;BME280;66004;55.096;38.760;2023-01-30T10:44:57;98782.03;;;0.33;63.13
77079;BME280;66004;55.096;38.760;2023-01-30T10:49:57;98772.47;;;0.26;63.41
77079;BME280;66004;55.096;38.760;2023-01-30T10:52:46;98771.75;;;0.20;63.55
77079;BME280;66004;55.096;38.760;2023-01-30T10:57:56;98769.50;;;0.22;63.72
77079;BME280;66004;55.096;38.760;2023-01-30T11:05:50;98750.66;;;0.24;63.99
77079;BME280;66004;55.096;38.760;2023-01-30T11:10:45;98740.22;;;0.21;64.29
77079;BME280;66004;55.096;38.760;2023-01-30T11:13:30;98745.13;;;0.24;64.12
77079;BME280;66004;55.096;38.760;2023-01-30T11:16:07;98739.59;;;0.24;64.04
77079;BME280;66004;55.096;38.760;2023-01-30T11:18:44;98733.44;;;0.27;63.97
77079;BME280;66004;55.096;38.760;2023-01-30T11:21:38;98732.84;;;0.30;64.41
77079;BME280;66004;55.096;38.760;2023-01-30T11:24:22;98736.13;;;0.32;64.00
77079;BME280;66004;55.096;38.760;2023-01-30T11:26:49;98723.41;;;0.31;64.13
77079;BME280;66004;55.096;38.760;2023-01-30T11:29:29;98727.31;;;0.30;64.15
77079;BME280;66004;55.096;38.760;2023-01-30T11:31:57;98720.13;;;0.29;64.24
77079;BME280;66004;55.096;38.760;2023-01-30T11:34:25;98726.19;;;0.31;64.31
77079;BME280;66004;55.096;38.760;2023-01-30T11:36:51;98721.16;;;0.33;64.35
77079;BME280;66004;55.096;38.760;2023-01-30T11:39:20;98732.22;;;0.33;64.31
77079;BME280;66004;55.096;38.760;2023-01-30T11:44:27;98705.78;;;0.27;64.30
77079;BME280;66004;55.096;38.760;2023-01-30T11:46:57;98699.22;;;0.23;64.39
77079;BME280;66004;55.096;38.760;2023-01-30T11:49:25;98708.63;;;0.22;64.57
77079;BME280;66004;55.096;38.760;2023-01-30T11:51:55;98693.91;;;0.27;64.35
77079;BME280;66004;55.096;38.760;2023-01-30T11:54:32;98698.44;;;0.36;64.56
77079;BME280;66004;55.096;38.760;2023-01-30T11:57:02;98702.22;;;0.41;64.29
77079;BME280;66004;55.096;38.760;2023-01-30T12:02:50;98696.59;;;0.46;64.10
77079;BME280;66004;55.096;38.760;2023-01-30T12:05:03;98686.13;;;0.43;64.09
77079;BME280;66004;55.096;38.760;2023-01-30T12:07:32;98688.81;;;0.48;64.08
77079;BME280;66004;55.096;38.760;2023-01-30T12:09:58;98683.28;;;0.48;64.07
77079;BME280;66004;55.096;38.760;2023-01-30T12:23:14;98674.25;;;0.56;63.92
77079;BME280;66004;55.096;38.760;2023-01-30T12:33:44;98662.75;;;0.49;64.02
77079;BME280;66004;55.096;38.760;2023-01-30T12:50:10;98637.97;;;0.44;64.52
77079;BME280;66004;55.096;38.760;2023-01-30T12:58:31;98639.00;;;0.48;64.53
77079;BME280;66004;55.096;38.760;2023-01-30T13:01:06;98641.75;;;0.48;64.67
77079;BME280;66004;55.096;38.760;2023-01-30T13:03:52;98629.34;;;0.45;64.62
77079;BME280;66004;55.096;38.760;2023-01-30T13:11:36;98618.09;;;0.42;64.88
77079;BME280;66004;55.096;38.760;2023-01-30T13:21:50;98614.63;;;0.36;64.92
77079;BME280;66004;55.096;38.760;2023-01-30T13:27:19;98608.03;;;0.32;64.93
77079;BME280;66004;55.096;38.760;2023-01-30T13:29:46;98615.53;;;0.31;64.92
77079;BME280;66004;55.096;38.760;2023-01-30T13:32:45;98605.69;;;0.25;65.13
77079;BME280;66004;55.096;38.760;2023-01-30T13:35:25;98609.28;;;0.26;65.08
77079;BME280;66004;55.096;38.760;2023-01-30T13:37:54;98605.19;;;0.23;65.15
77079;BME280;66004;55.096;38.760;2023-01-30T13:40:43;98612.97;;;0.21;65.07
77079;BME280;66004;55.096;38.760;2023-01-30T13:45:47;98599.44;;;0.19;65.22
77079;BME280;66004;55.096;38.760;2023-01-30T13:48:44;98600.25;;;0.20;65.43
77079;BME280;66004;55.096;38.760;2023-01-30T13:56:40;98601.50;;;0.14;65.35
77079;BME280;66004;55.096;38.760;2023-01-30T14:02:17;98599.75;;;0.18;65.30
77079;BME280;66004;55.096;38.760;2023-01-30T14:04:45;98592.56;;;0.17;65.34
77079;BME280;66004;55.096;38.760;2023-01-30T14:09:39;98593.09;;;0.19;65.40
77079;BME280;66004;55.096;38.760;2023-01-30T14:12:05;98595.34;;;0.17;65.36
77079;BME280;66004;55.096;38.760;2023-01-30T14:14:38;98580.41;;;0.18;65.39
77079;BME280;66004;55.096;38.760;2023-01-30T14:17:12;98595.03;;;0.18;65.34
77079;BME280;66004;55.096;38.760;2023-01-30T14:22:23;98589.81;;;0.17;65.45
77079;BME280;66004;55.096;38.760;2023-01-30T14:32:57;98570.66;;;0.07;65.23
77079;BME280;66004;55.096;38.760;2023-01-30T14:35:26;98574.66;;;0.14;65.27
77079;BME280;66004;55.096;38.760;2023-01-30T14:38:12;98579.38;;;0.14;65.44
77079;BME280;66004;55.096;38.760;2023-01-30T14:40:44;98579.88;;;0.16;65.30
77079;BME280;66004;55.096;38.760;2023-01-30T14:45:49;98565.03;;;0.12;65.10
77079;BME280;66004;55.096;38.760;2023-01-30T15:09:02;98560.94;;;0.73;63.39
77079;BME280;66004;55.096;38.760;2023-01-30T15:11:29;98556.34;;;0.69;63.54
77079;BME280;66004;55.096;38.760;2023-01-30T15:14:17;98566.22;;;0.61;63.42
77079;BME280;66004;55.096;38.760;2023-01-30T15:16:57;98544.91;;;0.48;63.60
77079;BME280;66004;55.096;38.760;2023-01-30T15:22:38;98553.31;;;0.43;63.75
77079;BME280;66004;55.096;38.760;2023-01-30T15:27:53;98549.03;;;0.36;64.00
77079;BME280;66004;55.096;38.760;2023-01-30T15:30:50;98540.22;;;0.34;63.96
77079;BME280;66004;55.096;38.760;2023-01-30T15:33:22;98539.81;;;0.27;63.93
77079;BME280;66004;55.096;38.760;2023-01-30T15:35:49;98538.31;;;0.21;64.02
77079;BME280;66004;55.096;38.760;2023-01-30T15:40:53;98527.13;;;0.12;64.25
77079;BME280;66004;55.096;38.760;2023-01-30T15:46:36;98539.41;;;0.20;64.36
77079;BME280;66004;55.096;38.760;2023-01-30T15:49:20;98532.25;;;0.19;64.45
77079;BME280;66004;55.096;38.760;2023-01-30T15:51:49;98514.25;;;0.08;64.32
77079;BME280;66004;55.096;38.760;2023-01-30T15:54:19;98533.69;;;0.16;64.49
77079;BME280;66004;55.096;38.760;2023-01-30T15:56:47;98525.09;;;0.18;64.33
77079;BME280;66004;55.096;38.760;2023-01-30T16:02:23;98523.44;;;0.17;64.42
77079;BME280;66004;55.096;38.760;2023-01-30T16:07:36;98519.56;;;0.18;64.52
77079;BME280;66004;55.096;38.760;2023-01-30T16:10:02;98525.09;;;0.18;64.18
77079;BME280;66004;55.096;38.760;2023-01-30T16:12:29;98525.69;;;0.15;64.32
77079;BME280;66004;55.096;38.760;2023-01-30T16:14:56;98512.59;;;0.07;64.37
77079;BME280;66004;55.096;38.760;2023-01-30T16:17:28;98507.56;;;0.09;64.36
77079;BME280;66004;55.096;38.760;2023-01-30T16:19:57;98518.84;;;0.12;64.53
77079;BME280;66004;55.096;38.760;2023-01-30T16:22:24;98516.88;;;0.13;64.53
77079;BME280;66004;55.096;38.760;2023-01-30T16:24:54;98525.69;;;0.15;64.44